createdAt,value
2018-05-01T00:01:47.681Z,0.40
2018-05-01T00:04:15.962Z,0.30
2018-05-01T00:06:44.234Z,0.30
2018-05-01T00:09:12.505Z,0.40
2018-05-01T00:11:40.779Z,0.50
2018-05-01T00:14:09.038Z,0.33
2018-05-01T00:16:37.314Z,0.50
2018-05-01T00:19:05.974Z,0.30
2018-05-01T00:21:34.273Z,0.53
2018-05-01T00:24:02.550Z,0.40
2018-05-01T00:26:30.818Z,0.40
2018-05-01T00:28:59.163Z,0.67
2018-05-01T00:31:27.377Z,2.30
2018-05-01T00:33:55.669Z,0.70
2018-05-01T00:36:23.936Z,0.50
2018-05-01T00:38:52.206Z,0.50
2018-05-01T00:41:20.486Z,0.50
2018-05-01T00:43:48.749Z,0.33
2018-05-01T00:46:17.038Z,0.67
2018-05-01T00:48:45.314Z,0.50
2018-05-01T00:51:13.587Z,0.80
2018-05-01T00:53:41.883Z,0.60
2018-05-01T00:56:10.167Z,0.60
2018-05-01T00:58:38.459Z,0.50
2018-05-01T01:01:06.722Z,0.40
2018-05-01T01:03:35.057Z,0.90
2018-05-01T01:06:03.288Z,0.80
2018-05-01T01:08:31.584Z,1.13
2018-05-01T01:10:59.860Z,0.70
2018-05-01T01:13:28.131Z,0.73
2018-05-01T01:15:56.474Z,0.60
2018-05-01T01:18:25.125Z,1.33
2018-05-01T01:20:53.412Z,0.47
2018-05-01T01:23:21.683Z,0.40
2018-05-01T01:25:49.980Z,1.00
2018-05-01T01:28:18.258Z,1.17
2018-05-01T01:30:46.542Z,0.90
2018-05-01T01:33:17.329Z,0.40
2018-05-01T01:35:45.261Z,0.70
2018-05-01T01:38:12.997Z,1.10
2018-05-01T01:40:40.743Z,0.40
2018-05-01T01:43:08.474Z,0.83
2018-05-01T01:45:36.218Z,0.60
2018-05-01T01:48:04.011Z,0.83
2018-05-01T01:50:31.723Z,0.93
2018-05-01T01:52:59.830Z,0.60
2018-05-01T01:55:27.566Z,0.60
2018-05-01T01:57:55.302Z,0.67
2018-05-01T02:00:23.055Z,0.40
2018-05-01T02:02:50.790Z,0.30
2018-05-01T02:05:18.833Z,0.40
2018-05-01T02:07:46.563Z,0.50
2018-05-01T02:10:14.290Z,0.40
2018-05-01T02:12:42.031Z,0.30
2018-05-01T02:15:09.797Z,0.20
2018-05-01T02:17:37.585Z,0.20
2018-05-01T02:20:05.319Z,0.20
2018-05-01T02:22:33.066Z,0.40
2018-05-01T02:25:00.815Z,0.20
2018-05-01T02:27:28.546Z,0.20
2018-05-01T02:29:56.298Z,0.20
2018-05-01T02:32:24.045Z,0.20
2018-05-01T02:34:51.787Z,0.20
2018-05-01T02:37:19.535Z,0.30
2018-05-01T02:39:47.266Z,0.20
2018-05-01T02:42:15.271Z,0.20
2018-05-01T02:44:43.001Z,0.13
2018-05-01T02:47:10.741Z,0.33
2018-05-01T02:49:38.505Z,0.20
2018-05-01T02:52:06.257Z,0.40
2018-05-01T02:54:38.331Z,0.37
2018-05-01T02:57:06.066Z,0.30
2018-05-01T02:59:33.798Z,0.40
2018-05-01T03:02:01.539Z,0.40
2018-05-01T03:04:29.277Z,0.30
2018-05-01T03:06:57.354Z,0.40
2018-05-01T03:09:25.091Z,0.30
2018-05-01T03:11:52.823Z,0.30
2018-05-01T03:14:20.571Z,0.40
2018-05-01T03:16:48.310Z,0.30
2018-05-01T03:19:16.070Z,0.23
2018-05-01T03:21:43.814Z,0.60
2018-05-01T03:24:11.543Z,0.60
2018-05-01T03:26:39.291Z,0.40
2018-05-01T03:29:07.034Z,0.50
2018-05-01T03:31:34.795Z,0.50
2018-05-01T03:34:02.534Z,0.30
2018-05-01T03:36:30.285Z,0.43
2018-05-01T03:38:58.034Z,0.40
2018-05-01T03:41:25.764Z,0.30
2018-05-01T03:43:53.515Z,0.50
2018-05-01T03:46:21.259Z,0.50
2018-05-01T03:48:48.994Z,0.33
2018-05-01T03:51:16.756Z,0.40
2018-05-01T03:53:44.494Z,0.50
2018-05-01T03:56:12.288Z,0.80
2018-05-01T03:58:40.007Z,0.60
2018-05-01T04:01:07.745Z,0.83
2018-05-01T04:03:35.485Z,0.90
2018-05-01T04:06:03.218Z,0.50
2018-05-01T04:08:31.057Z,0.50
2018-05-01T04:10:58.778Z,0.67
2018-05-01T04:13:26.508Z,0.50
2018-05-01T04:15:54.261Z,0.70
2018-05-01T04:18:22.009Z,0.37
2018-05-01T04:20:49.754Z,0.40
2018-05-01T04:23:17.497Z,2.27
2018-05-01T04:25:45.229Z,0.77
2018-05-01T04:28:12.966Z,0.60
2018-05-01T04:30:40.740Z,0.50
2018-05-01T04:33:08.485Z,0.77
2018-05-01T04:35:36.230Z,0.60
2018-05-01T04:38:03.992Z,0.60
2018-05-01T04:40:31.726Z,0.73
2018-05-01T04:42:59.455Z,0.87
2018-05-01T04:45:27.209Z,0.97
2018-05-01T04:47:54.949Z,0.80
2018-05-01T04:50:22.679Z,1.13
2018-05-01T04:52:50.416Z,0.90
2018-05-01T04:55:18.155Z,0.97
2018-05-01T04:57:46.147Z,1.40
2018-05-01T05:00:13.886Z,1.03
2018-05-01T05:02:41.634Z,1.00
2018-05-01T05:05:09.374Z,1.17
2018-05-01T05:07:37.098Z,1.17
2018-05-01T05:10:04.881Z,1.07
2018-05-01T05:12:32.628Z,1.40
2018-05-01T05:15:00.373Z,1.37
2018-05-01T05:17:28.132Z,1.30
2018-05-01T05:19:55.858Z,1.07
2018-05-01T05:22:23.606Z,1.00
2018-05-01T05:24:51.347Z,1.33
2018-05-01T05:27:19.096Z,1.17
2018-05-01T05:29:46.846Z,1.30
2018-05-01T05:32:14.579Z,1.87
2018-05-01T05:34:42.323Z,1.57
2018-05-01T05:37:10.061Z,1.47
2018-05-01T05:39:37.795Z,1.00
2018-05-01T05:42:05.542Z,1.90
2018-05-01T05:44:33.278Z,1.80
2018-05-01T05:47:01.035Z,1.50
2018-05-01T05:49:28.793Z,2.60
2018-05-01T05:51:56.534Z,1.73
2018-05-01T05:54:24.333Z,2.47
2018-05-01T05:56:52.013Z,1.90
2018-05-01T05:59:19.768Z,2.60
2018-05-01T06:01:47.494Z,2.70
2018-05-01T06:04:15.242Z,2.40
2018-05-01T06:06:42.995Z,2.03
2018-05-01T06:09:10.726Z,2.77
2018-05-01T06:11:38.488Z,2.23
2018-05-01T06:14:06.221Z,2.70
2018-05-01T06:16:33.961Z,2.80
2018-05-01T06:19:01.710Z,2.83
2018-05-01T06:21:29.815Z,2.60
2018-05-01T06:23:57.587Z,2.30
2018-05-01T06:26:26.678Z,2.10
2018-05-01T06:28:54.422Z,2.53
2018-05-01T06:31:22.272Z,2.27
2018-05-01T06:33:49.914Z,2.40
2018-05-01T06:36:17.715Z,2.30
2018-05-01T06:38:45.420Z,2.50
2018-05-01T06:41:13.155Z,2.63
2018-05-01T06:43:40.909Z,2.70
2018-05-01T06:46:08.643Z,2.60
2018-05-01T06:48:36.390Z,2.70
2018-05-01T06:51:04.123Z,2.60
2018-05-01T06:53:31.863Z,2.23
2018-05-01T06:55:59.611Z,2.77
2018-05-01T06:58:27.343Z,2.40
2018-05-01T07:00:55.099Z,3.07
2018-05-01T07:03:22.838Z,2.30
2018-05-01T07:05:50.583Z,2.50
2018-05-01T07:08:18.323Z,2.70
2018-05-01T07:10:46.062Z,2.83
2018-05-01T07:13:13.811Z,2.37
2018-05-01T07:15:41.600Z,2.30
2018-05-01T07:18:09.338Z,2.83
2018-05-01T07:20:37.108Z,2.90
2018-05-01T07:23:04.843Z,2.40
2018-05-01T07:25:32.600Z,2.60
2018-05-01T07:28:00.403Z,2.50
2018-05-01T07:30:28.223Z,2.40
2018-05-01T07:32:55.961Z,2.40
2018-05-01T07:35:23.705Z,2.37
2018-05-01T07:37:51.456Z,3.10
2018-05-01T07:40:19.235Z,3.57
2018-05-01T07:42:46.975Z,3.53
2018-05-01T07:45:14.706Z,3.13
2018-05-01T07:47:42.451Z,3.10
2018-05-01T07:50:10.201Z,3.50
2018-05-01T07:52:37.940Z,4.33
2018-05-01T07:55:05.683Z,3.47
2018-05-01T07:57:33.419Z,4.40
2018-05-01T08:00:01.186Z,3.80
2018-05-01T08:02:28.934Z,3.90
2018-05-01T08:04:56.772Z,3.80
2018-05-01T08:07:24.502Z,3.90
2018-05-01T08:09:52.253Z,3.77
2018-05-01T08:12:20.001Z,5.23
2018-05-01T08:14:47.749Z,3.93
2018-05-01T08:17:18.162Z,3.43
2018-05-01T08:19:46.231Z,4.17
2018-05-01T08:22:14.727Z,3.67
2018-05-01T08:24:42.494Z,4.77
2018-05-01T08:27:10.250Z,4.10
2018-05-01T08:29:37.983Z,4.50
2018-05-01T08:32:05.735Z,4.23
2018-05-01T08:34:33.474Z,3.80
2018-05-01T08:37:01.259Z,4.10
2018-05-01T08:39:29.094Z,4.23
2018-05-01T08:41:56.843Z,3.90
2018-05-01T08:44:24.599Z,4.00
2018-05-01T08:46:52.355Z,3.83
2018-05-01T08:49:20.096Z,3.63
2018-05-01T08:51:47.859Z,4.27
2018-05-01T08:54:15.644Z,4.30
2018-05-01T08:56:43.429Z,4.50
2018-05-01T08:59:11.202Z,4.20
2018-05-01T09:01:38.957Z,4.50
2018-05-01T09:04:06.689Z,4.30
2018-05-01T09:06:34.420Z,4.70
2018-05-01T09:09:02.146Z,4.30
2018-05-01T09:11:29.892Z,5.00
2018-05-01T09:13:57.629Z,4.50
2018-05-01T09:16:25.396Z,4.60
2018-05-01T09:18:53.185Z,4.87
2018-05-01T09:21:20.927Z,5.07
2018-05-01T09:23:48.686Z,4.43
2018-05-01T09:26:16.451Z,5.20
2018-05-01T09:28:44.214Z,4.23
2018-05-01T09:31:11.950Z,4.63
2018-05-01T09:33:39.684Z,5.07
2018-05-01T09:36:07.430Z,5.13
2018-05-01T09:38:35.158Z,5.57
2018-05-01T09:41:02.916Z,5.17
2018-05-01T09:43:30.649Z,5.03
2018-05-01T09:45:58.402Z,6.07
2018-05-01T09:48:26.161Z,4.70
2018-05-01T09:50:53.943Z,6.17
2018-05-01T09:53:41.217Z,6.53
2018-05-01T09:56:10.333Z,5.10
2018-05-01T09:58:40.079Z,5.77
2018-05-01T10:01:09.576Z,5.90
2018-05-01T10:03:42.333Z,5.53
2018-05-01T10:06:11.975Z,5.33
2018-05-01T10:08:41.332Z,5.37
2018-05-01T10:11:10.779Z,4.47
2018-05-01T10:13:39.678Z,4.77
2018-05-01T10:16:09.146Z,5.27
2018-05-01T10:18:37.690Z,5.20
2018-05-01T10:24:03.958Z,5.87
2018-05-01T10:26:32.252Z,5.67
2018-05-01T10:29:00.553Z,5.40
2018-05-01T10:31:28.834Z,4.97
2018-05-01T10:33:57.131Z,5.73
2018-05-01T10:36:25.454Z,5.60
2018-05-01T10:38:53.802Z,5.00
2018-05-01T10:41:22.031Z,4.40
2018-05-01T10:43:50.321Z,5.20
2018-05-01T10:46:18.591Z,5.80
2018-05-01T10:48:46.867Z,5.70
2018-05-01T10:51:15.195Z,5.77
2018-05-01T10:53:43.447Z,5.57
2018-05-01T10:56:11.750Z,5.73
2018-05-01T10:58:40.031Z,4.60
2018-05-01T11:01:08.319Z,5.10
2018-05-01T11:03:36.605Z,4.73
2018-05-01T11:06:04.898Z,5.00
2018-05-01T11:08:33.167Z,4.97
2018-05-01T11:11:01.978Z,4.30
2018-05-01T11:13:30.401Z,5.10
2018-05-01T11:15:58.687Z,5.00
2018-05-01T11:18:27.003Z,5.13
2018-05-01T11:20:55.272Z,4.50
2018-05-01T11:23:23.576Z,4.50
2018-05-01T11:25:51.842Z,4.80
2018-05-01T11:28:20.722Z,4.87
2018-05-01T11:30:48.998Z,4.70
2018-05-01T11:33:17.441Z,5.27
2018-05-01T11:35:45.880Z,5.33
2018-05-01T11:38:14.318Z,4.53
2018-05-01T11:40:42.951Z,5.20
2018-05-01T11:43:12.026Z,4.63
2018-05-01T11:45:40.322Z,4.77
2018-05-01T11:48:08.775Z,4.40
2018-05-01T11:50:37.300Z,4.60
2018-05-01T11:53:07.607Z,5.13
2018-05-01T11:55:38.302Z,4.70
2018-05-01T11:58:07.234Z,4.47
2018-05-01T12:00:36.510Z,4.60
2018-05-01T12:03:05.463Z,5.00
2018-05-01T12:05:36.045Z,5.00
2018-05-01T12:08:04.629Z,4.07
2018-05-01T12:10:33.210Z,4.90
2018-05-01T12:13:02.372Z,4.23
2018-05-01T12:15:31.965Z,3.93
2018-05-01T12:18:00.411Z,4.63
2018-05-01T12:20:28.749Z,4.57
2018-05-01T12:22:57.473Z,3.97
2018-05-01T12:25:25.718Z,4.17
2018-05-01T12:27:54.055Z,4.07
2018-05-01T12:30:22.282Z,4.83
2018-05-01T12:32:55.793Z,4.37
2018-05-01T12:35:24.071Z,3.83
2018-05-01T12:37:52.714Z,3.93
2018-05-01T12:40:21.178Z,4.20
2018-05-01T12:42:49.981Z,4.10
2018-05-01T12:45:18.463Z,4.27
2018-05-01T12:47:46.819Z,4.43
2018-05-01T12:50:15.091Z,3.63
2018-05-01T12:52:43.377Z,4.23
2018-05-01T12:55:11.658Z,4.30
2018-05-01T12:57:39.938Z,4.80
2018-05-01T13:00:08.217Z,4.10
2018-05-01T13:02:36.509Z,4.10
2018-05-01T13:05:04.790Z,3.90
2018-05-01T13:07:33.071Z,3.70
2018-05-01T13:10:01.350Z,4.17
2018-05-01T13:12:29.699Z,3.70
2018-05-01T13:14:57.903Z,3.90
2018-05-01T13:17:26.181Z,3.40
2018-05-01T13:19:54.456Z,3.33
2018-05-01T13:22:22.734Z,4.00
2018-05-01T13:24:51.089Z,4.07
2018-05-01T13:27:19.301Z,3.93
2018-05-01T13:29:47.573Z,3.93
2018-05-01T13:32:15.846Z,3.77
2018-05-01T13:34:44.118Z,3.60
2018-05-01T13:37:12.410Z,3.63
2018-05-01T13:39:40.674Z,3.70
2018-05-01T13:42:08.958Z,3.90
2018-05-01T13:44:37.229Z,3.37
2018-05-01T13:47:06.252Z,3.60
2018-05-01T13:49:34.484Z,3.23
2018-05-01T13:52:02.779Z,3.30
2018-05-01T13:54:31.048Z,3.50
2018-05-01T13:56:59.332Z,3.57
2018-05-01T13:59:27.606Z,2.87
2018-05-01T14:01:55.877Z,3.83
2018-05-01T14:04:24.215Z,3.57
2018-05-01T14:06:52.448Z,3.47
2018-05-01T14:09:20.734Z,3.47
2018-05-01T14:11:49.017Z,3.07
2018-05-01T14:14:17.289Z,3.23
2018-05-01T14:16:45.554Z,3.70
2018-05-01T14:19:13.862Z,4.20
2018-05-01T14:21:42.123Z,3.50
2018-05-01T14:24:10.395Z,4.23
2018-05-01T14:26:38.674Z,3.67
2018-05-01T14:29:06.946Z,3.37
2018-05-01T14:31:35.242Z,4.13
2018-05-01T14:34:03.506Z,4.00
2018-05-01T14:36:31.774Z,3.60
2018-05-01T14:39:00.059Z,3.60
2018-05-01T14:41:28.329Z,3.60
2018-05-01T14:43:56.629Z,3.67
2018-05-01T14:46:24.890Z,3.70
2018-05-01T14:48:53.169Z,3.30
2018-05-01T14:51:21.473Z,4.10
2018-05-01T14:53:49.753Z,3.50
2018-05-01T14:56:18.030Z,3.83
2018-05-01T14:58:46.314Z,3.90
2018-05-01T15:01:14.614Z,3.77
2018-05-01T15:03:42.866Z,3.47
2018-05-01T15:06:11.161Z,3.90
2018-05-01T15:08:39.441Z,3.40
2018-05-01T15:11:07.709Z,3.57
2018-05-01T15:13:35.991Z,3.40
2018-05-01T15:16:04.276Z,3.73
2018-05-01T15:18:32.544Z,3.20
2018-05-01T15:21:01.069Z,3.17
2018-05-01T15:23:29.337Z,3.30
2018-05-01T15:25:57.610Z,3.37
2018-05-01T15:28:25.894Z,3.20
2018-05-01T15:30:54.203Z,3.97
2018-05-01T15:33:22.486Z,4.20
2018-05-01T15:35:50.762Z,4.07
2018-05-01T15:38:19.044Z,3.40
2018-05-01T15:40:47.318Z,3.83
2018-05-01T15:43:15.618Z,3.30
2018-05-01T15:45:43.888Z,3.60
2018-05-01T15:48:12.167Z,3.30
2018-05-01T15:50:40.448Z,3.30
2018-05-01T15:53:08.719Z,3.17
2018-05-01T15:55:37.024Z,3.00
2018-05-01T15:58:05.325Z,3.63
2018-05-01T16:00:33.607Z,3.50
2018-05-01T16:03:01.865Z,3.10
2018-05-01T16:05:30.146Z,3.27
2018-05-01T16:07:58.432Z,3.40
2018-05-01T16:10:26.693Z,3.07
2018-05-01T16:12:54.971Z,3.00
2018-05-01T16:15:23.239Z,3.53
2018-05-01T16:17:51.516Z,3.10
2018-05-01T16:20:19.787Z,2.13
2018-05-01T16:22:48.070Z,3.20
2018-05-01T16:25:16.345Z,3.20
2018-05-01T16:27:44.614Z,3.27
2018-05-01T16:30:12.897Z,3.20
2018-05-01T16:32:41.161Z,2.40
2018-05-01T16:35:09.471Z,2.27
2018-05-01T16:37:37.737Z,3.10
2018-05-01T16:40:06.018Z,3.37
2018-05-01T16:42:34.282Z,3.00
2018-05-01T16:45:02.558Z,2.60
2018-05-01T16:47:30.828Z,2.20
2018-05-01T16:49:59.098Z,2.67
2018-05-01T16:52:27.370Z,2.50
2018-05-01T16:54:55.685Z,2.43
2018-05-01T16:57:23.938Z,2.87
2018-05-01T16:59:52.207Z,2.43
2018-05-01T17:02:20.483Z,2.50
2018-05-01T17:04:48.756Z,2.77
2018-05-01T17:07:17.032Z,2.90
2018-05-01T17:09:45.301Z,2.73
2018-05-01T17:12:13.582Z,2.60
2018-05-01T17:14:41.851Z,2.50
2018-05-01T17:17:10.477Z,2.37
2018-05-01T17:19:38.742Z,2.47
2018-05-01T17:22:07.099Z,2.47
2018-05-01T17:24:35.294Z,2.63
2018-05-01T17:27:03.561Z,2.50
2018-05-01T17:29:31.846Z,2.23
2018-05-01T17:32:00.111Z,2.00
2018-05-01T17:34:28.398Z,1.80
2018-05-01T17:36:56.669Z,2.60
2018-05-01T17:39:24.946Z,2.33
2018-05-01T17:41:53.214Z,2.70
2018-05-01T17:44:21.545Z,1.97
2018-05-01T17:46:49.819Z,1.97
2018-05-01T17:49:18.089Z,3.00
2018-05-01T17:51:46.365Z,2.50
2018-05-01T17:54:14.638Z,1.97
2018-05-01T17:56:42.918Z,2.60
2018-05-01T17:59:11.181Z,3.00
2018-05-01T18:01:39.457Z,1.87
2018-05-01T18:04:07.721Z,2.70
2018-05-01T18:06:36.115Z,2.00
2018-05-01T18:09:05.014Z,2.33
2018-05-01T18:11:33.278Z,2.50
2018-05-01T18:14:01.554Z,2.67
2018-05-01T18:16:29.818Z,2.00
2018-05-01T18:18:58.093Z,2.50
2018-05-01T18:21:26.359Z,2.60
2018-05-01T18:23:54.633Z,2.43
2018-05-01T18:26:22.901Z,2.37
2018-05-01T18:28:51.178Z,2.30
2018-05-01T18:31:19.459Z,2.00
2018-05-01T18:33:47.736Z,2.43
2018-05-01T18:36:16.045Z,2.20
2018-05-01T18:38:44.305Z,2.87
2018-05-01T18:41:12.590Z,2.53
2018-05-01T18:43:40.849Z,2.90
2018-05-01T18:46:09.137Z,3.77
2018-05-01T18:48:37.402Z,2.87
2018-05-01T18:51:05.701Z,3.23
2018-05-01T18:53:33.974Z,2.70
2018-05-01T18:56:02.246Z,3.53
2018-05-01T18:58:30.662Z,3.20
2018-05-01T19:00:58.942Z,3.53
2018-05-01T19:03:27.296Z,3.00
2018-05-01T19:05:55.752Z,3.33
2018-05-01T19:08:24.033Z,3.07
2018-05-01T19:10:52.312Z,4.00
2018-05-01T19:13:20.610Z,3.90
2018-05-01T19:15:48.916Z,4.00
2018-05-01T19:18:17.201Z,3.80
2018-05-01T19:20:45.491Z,3.70
2018-05-01T19:23:13.776Z,3.50
2018-05-01T19:25:42.094Z,3.10
2018-05-01T19:28:10.346Z,3.40
2018-05-01T19:30:38.649Z,3.30
2018-05-01T19:33:06.935Z,3.47
2018-05-01T19:35:35.214Z,3.33
2018-05-01T19:38:03.494Z,4.37
2018-05-01T19:40:31.770Z,3.40
2018-05-01T19:43:00.121Z,3.50
2018-05-01T19:45:28.342Z,3.53
2018-05-01T19:47:56.625Z,3.90
2018-05-01T19:50:24.926Z,3.93
2018-05-01T19:52:53.210Z,4.07
2018-05-01T19:55:21.474Z,3.87
2018-05-01T19:57:49.818Z,3.37
2018-05-01T20:00:18.138Z,4.13
2018-05-01T20:02:46.393Z,3.70
2018-05-01T20:05:14.704Z,3.90
2018-05-01T20:07:42.975Z,3.93
2018-05-01T20:10:11.294Z,3.83
2018-05-01T20:12:39.575Z,3.90
2018-05-01T20:15:07.874Z,4.30
2018-05-01T20:17:36.167Z,4.30
2018-05-01T20:20:04.549Z,4.37
2018-05-01T20:22:32.735Z,4.17
2018-05-01T20:25:01.017Z,4.40
2018-05-01T20:27:29.290Z,4.70
2018-05-01T20:29:57.650Z,4.17
2018-05-01T20:32:25.950Z,5.03
2018-05-01T20:34:54.222Z,4.70
2018-05-01T20:37:22.514Z,4.33
2018-05-01T20:39:50.783Z,4.27
2018-05-01T20:42:19.049Z,4.70
2018-05-01T20:44:47.354Z,4.50
2018-05-01T20:47:15.619Z,4.93
2018-05-01T20:49:43.905Z,4.40
2018-05-01T20:52:12.182Z,4.33
2018-05-01T20:54:40.487Z,4.50
2018-05-01T20:57:08.774Z,5.53
2018-05-01T20:59:37.143Z,5.30
2018-05-01T21:02:05.443Z,4.50
2018-05-01T21:04:34.718Z,4.30
2018-05-01T21:07:03.024Z,5.20
2018-05-01T21:09:31.303Z,5.10
2018-05-01T21:11:59.582Z,4.70
2018-05-01T21:14:29.790Z,4.20
2018-05-01T21:16:58.345Z,4.63
2018-05-01T21:19:26.610Z,4.37
2018-05-01T21:21:54.929Z,4.57
2018-05-01T21:24:23.258Z,5.00
2018-05-01T21:26:51.526Z,4.10
2018-05-01T21:29:19.794Z,5.10
2018-05-01T21:31:48.078Z,4.87
2018-05-01T21:34:16.355Z,4.90
2018-05-01T21:36:44.630Z,4.73
2018-05-01T21:39:12.906Z,5.10
2018-05-01T21:41:41.713Z,4.30
2018-05-01T21:44:10.682Z,4.60
2018-05-01T21:46:38.951Z,5.07
2018-05-01T21:49:07.231Z,4.30
2018-05-01T21:51:35.503Z,5.10
2018-05-01T21:54:03.782Z,4.43
2018-05-01T21:56:32.059Z,4.30
2018-05-01T21:59:00.358Z,4.70
2018-05-01T22:01:28.663Z,4.37
2018-05-01T22:03:56.938Z,3.80
2018-05-01T22:06:25.258Z,4.47
2018-05-01T22:08:53.522Z,4.00
2018-05-01T22:11:21.798Z,5.80
2018-05-01T22:13:50.070Z,5.37
2018-05-01T22:16:18.352Z,4.83
2018-05-01T22:18:46.615Z,5.20
2018-05-01T22:21:14.934Z,5.83
2018-05-01T22:23:43.218Z,4.40
2018-05-01T22:26:11.534Z,4.63
2018-05-01T22:28:39.822Z,4.33
2018-05-01T22:31:08.099Z,6.00
2018-05-01T22:33:36.396Z,4.20
2018-05-01T22:36:04.667Z,5.30
2018-05-01T22:38:32.935Z,5.43
2018-05-01T22:41:01.222Z,5.57
2018-05-01T22:43:29.506Z,5.63
2018-05-01T22:45:57.783Z,4.87
2018-05-01T22:48:26.059Z,5.20
2018-05-01T22:50:54.349Z,4.47
2018-05-01T22:53:22.615Z,4.90
2018-05-01T22:55:50.879Z,4.57
2018-05-01T22:58:19.159Z,5.30
2018-05-01T23:00:47.423Z,5.03
2018-05-01T23:03:15.708Z,6.33
2018-05-01T23:05:43.976Z,4.90
2018-05-01T23:08:12.270Z,5.33
2018-05-01T23:10:40.527Z,5.00
2018-05-01T23:13:08.794Z,5.37
2018-05-01T23:15:37.080Z,4.87
2018-05-01T23:18:05.351Z,5.23
2018-05-01T23:20:33.638Z,5.27
2018-05-01T23:23:01.898Z,5.63
2018-05-01T23:25:30.205Z,5.57
2018-05-01T23:27:58.466Z,5.67
2018-05-01T23:30:26.748Z,5.37
2018-05-01T23:32:55.019Z,5.13
2018-05-01T23:35:23.282Z,4.60
2018-05-01T23:37:51.567Z,5.90
2018-05-01T23:40:19.850Z,5.30
2018-05-01T23:42:48.148Z,6.20
2018-05-01T23:45:16.410Z,4.60
2018-05-01T23:47:44.678Z,6.07
2018-05-01T23:50:12.949Z,4.50
2018-05-01T23:52:41.214Z,6.17
2018-05-01T23:55:09.506Z,5.33
2018-05-01T23:57:37.770Z,5.70
